createdAt,value
2019-05-05T00:02:46.041Z,4.27
2019-05-05T00:05:30.432Z,4.40
2019-05-05T00:08:01.761Z,3.90
2019-05-05T00:10:46.041Z,3.60
2019-05-05T00:13:26.881Z,3.60
2019-05-05T00:16:17.080Z,3.93
2019-05-05T00:18:49.061Z,3.60
2019-05-05T00:21:20.091Z,3.93
2019-05-05T00:23:52.307Z,4.10
2019-05-05T00:26:24.368Z,4.30
2019-05-05T00:28:55.680Z,4.43
2019-05-05T00:31:27.122Z,4.17
2019-05-05T00:33:58.477Z,4.00
2019-05-05T00:36:29.737Z,4.10
2019-05-05T00:39:01.246Z,4.03
2019-05-05T00:41:34.606Z,4.03
2019-05-05T00:44:06.546Z,4.07
2019-05-05T00:46:56.715Z,4.33
2019-05-05T00:49:28.876Z,4.27
2019-05-05T00:52:00.260Z,4.30
2019-05-05T00:54:31.872Z,4.37
2019-05-05T00:57:04.434Z,4.20
2019-05-05T00:59:35.589Z,4.53
2019-05-05T01:02:28.299Z,4.57
2019-05-05T01:05:12.147Z,4.47
2019-05-05T01:07:44.381Z,4.30
2019-05-05T01:10:15.632Z,4.77
2019-05-05T01:12:47.023Z,4.73
2019-05-05T01:15:18.231Z,4.50
2019-05-05T01:17:49.520Z,4.60
2019-05-05T01:20:20.967Z,4.67
2019-05-05T01:22:52.229Z,4.50
2019-05-05T01:25:25.377Z,5.20
2019-05-05T01:27:56.844Z,4.50
2019-05-05T01:30:31.220Z,5.03
2019-05-05T01:33:09.514Z,5.47
2019-05-05T01:35:41.172Z,6.10
2019-05-05T01:38:18.636Z,6.10
2019-05-05T01:40:57.798Z,5.30
2019-05-05T01:43:29.355Z,5.67
2019-05-05T01:46:00.806Z,5.37
2019-05-05T01:48:32.317Z,5.17
2019-05-05T01:51:05.009Z,5.13
2019-05-05T01:53:37.686Z,4.90
2019-05-05T01:56:09.109Z,4.90
2019-05-05T01:58:40.637Z,4.80
2019-05-05T02:01:12.181Z,4.57
2019-05-05T02:03:44.306Z,4.30
2019-05-05T02:06:15.834Z,4.93
2019-05-05T02:08:47.202Z,4.80
2019-05-05T02:11:18.749Z,4.50
2019-05-05T02:13:50.095Z,4.63
2019-05-05T02:16:21.597Z,4.73
2019-05-05T02:18:54.438Z,4.37
2019-05-05T02:21:26.872Z,4.40
2019-05-05T02:23:58.801Z,4.83
2019-05-05T02:26:30.515Z,4.62
2019-05-05T02:29:19.682Z,4.97
2019-05-05T02:32:08.795Z,5.62
2019-05-05T02:34:46.132Z,5.45
2019-05-05T02:37:18.151Z,5.25
2019-05-05T02:39:58.923Z,5.30
2019-05-05T02:42:26.389Z,4.63
2019-05-05T02:45:05.077Z,4.90
2019-05-05T02:47:38.290Z,5.08
2019-05-05T02:50:09.906Z,6.13
2019-05-05T02:52:44.190Z,5.70
2019-05-05T02:55:16.163Z,5.85
2019-05-05T02:57:48.221Z,5.70
2019-05-05T03:00:38.895Z,5.53
2019-05-05T03:03:13.399Z,6.12
2019-05-05T03:05:44.874Z,6.27
2019-05-05T03:08:16.776Z,7.00
2019-05-05T03:10:48.930Z,6.83
2019-05-05T03:13:21.863Z,4.90
2019-05-05T03:15:58.301Z,6.85
2019-05-05T03:18:30.381Z,11.38
2019-05-05T03:21:07.147Z,6.12
2019-05-05T03:23:36.749Z,6.37
2019-05-05T03:26:08.550Z,5.97
2019-05-05T03:28:47.294Z,6.00
2019-05-05T03:31:19.348Z,6.10
2019-05-05T03:33:54.700Z,6.65
2019-05-05T03:36:25.889Z,6.78
2019-05-05T03:38:59.420Z,6.28
2019-05-05T03:41:43.858Z,6.40
2019-05-05T03:44:34.297Z,6.63
2019-05-05T03:47:06.323Z,5.95
2019-05-05T03:49:37.826Z,6.20
2019-05-05T03:52:09.590Z,6.10
2019-05-05T03:54:41.251Z,6.70
2019-05-05T03:57:14.107Z,6.70
2019-05-05T03:59:45.634Z,7.33
2019-05-05T04:02:25.994Z,6.37
2019-05-05T04:04:58.577Z,6.00
2019-05-05T04:07:30.291Z,6.40
2019-05-05T04:10:03.733Z,5.93
2019-05-05T04:12:35.639Z,6.20
2019-05-05T04:15:07.354Z,5.57
2019-05-05T04:17:56.302Z,6.10
2019-05-05T04:20:45.785Z,6.07
2019-05-05T04:23:17.205Z,5.97
2019-05-05T04:25:48.536Z,6.50
2019-05-05T04:28:19.940Z,6.97
2019-05-05T04:30:51.303Z,6.00
2019-05-05T04:33:23.660Z,6.67
2019-05-05T04:35:55.121Z,8.07
2019-05-05T04:38:26.395Z,7.50
2019-05-05T04:40:57.847Z,8.03
2019-05-05T04:43:29.173Z,7.10
2019-05-05T04:46:00.453Z,8.00
2019-05-05T04:48:43.912Z,8.17
2019-05-05T04:51:24.376Z,7.67
2019-05-05T04:54:15.869Z,7.73
2019-05-05T04:56:47.234Z,25.07
2019-05-05T04:59:18.345Z,22.67
2019-05-05T05:01:51.566Z,9.03
2019-05-05T05:04:30.830Z,9.43
2019-05-05T05:07:04.471Z,8.60
2019-05-05T05:09:35.369Z,8.90
2019-05-05T05:12:06.721Z,9.20
2019-05-05T05:14:37.930Z,9.23
2019-05-05T05:17:14.165Z,9.30
2019-05-05T05:19:45.626Z,9.13
2019-05-05T05:22:16.652Z,8.53
2019-05-05T05:24:47.936Z,8.50
2019-05-05T05:27:19.385Z,9.00
2019-05-05T05:29:50.783Z,11.83
2019-05-05T05:32:24.533Z,9.30
2019-05-05T05:34:56.364Z,9.77
2019-05-05T05:37:27.639Z,8.97
2019-05-05T05:40:08.510Z,9.53
2019-05-05T05:42:39.939Z,8.70
2019-05-05T05:45:48.623Z,9.00
2019-05-05T05:48:38.924Z,9.17
2019-05-05T05:51:14.500Z,6.73
2019-05-05T05:53:46.818Z,6.70
2019-05-05T05:56:17.904Z,6.20
2019-05-05T05:58:49.000Z,6.50
2019-05-05T06:01:20.754Z,6.23
2019-05-05T06:03:53.635Z,5.90
2019-05-05T06:06:25.411Z,7.00
2019-05-05T06:08:58.525Z,6.23
2019-05-05T06:11:30.397Z,6.57
2019-05-05T06:14:03.979Z,6.47
2019-05-05T06:16:37.258Z,4.77
2019-05-05T06:19:10.296Z,5.87
2019-05-05T06:21:43.852Z,6.17
2019-05-05T06:24:14.361Z,5.00
2019-05-05T06:26:45.558Z,4.67
2019-05-05T06:29:16.787Z,4.50
2019-05-05T06:31:47.884Z,4.70
2019-05-05T06:34:18.916Z,3.63
2019-05-05T06:36:50.019Z,4.37
2019-05-05T06:39:21.194Z,3.80
2019-05-05T06:42:01.310Z,2.90
2019-05-05T06:44:55.460Z,3.40
2019-05-05T06:47:29.533Z,3.10
2019-05-05T06:50:00.998Z,3.57
2019-05-05T06:52:43.700Z,3.60
2019-05-05T06:55:06.169Z,3.90
2019-05-05T06:57:37.694Z,7.57
2019-05-05T07:00:09.466Z,3.43
2019-05-05T07:02:41.087Z,3.60
2019-05-05T07:05:14.282Z,4.10
2019-05-05T07:07:45.297Z,4.17
2019-05-05T07:10:16.885Z,3.80
2019-05-05T07:12:48.118Z,3.83
2019-05-05T07:15:19.619Z,3.70
2019-05-05T07:17:50.827Z,3.90
2019-05-05T07:20:24.027Z,5.03
2019-05-05T07:23:01.418Z,5.00
2019-05-05T07:25:39.884Z,6.50
2019-05-05T07:28:00.817Z,5.63
2019-05-05T07:30:33.572Z,5.73
2019-05-05T07:33:05.126Z,5.83
2019-05-05T07:35:55.368Z,4.67
2019-05-05T07:38:17.855Z,4.77
2019-05-05T07:40:48.909Z,5.50
2019-05-05T07:43:20.333Z,4.30
2019-05-05T07:45:53.885Z,4.70
2019-05-05T07:48:24.618Z,4.93
2019-05-05T07:51:01.936Z,4.90
2019-05-05T07:53:28.324Z,4.40
2019-05-05T07:55:59.633Z,4.97
2019-05-05T07:58:30.901Z,4.60
2019-05-05T08:01:02.056Z,5.13
2019-05-05T08:03:33.856Z,6.60
2019-05-05T08:06:05.427Z,4.63
2019-05-05T08:08:37.356Z,5.63
2019-05-05T08:11:08.523Z,4.57
2019-05-05T08:13:39.718Z,5.57
2019-05-05T08:16:29.899Z,8.53
2019-05-05T08:19:13.762Z,5.00
2019-05-05T08:21:45.157Z,4.13
2019-05-05T08:24:33.735Z,4.13
2019-05-05T08:27:34.000Z,4.90
2019-05-05T08:30:15.314Z,4.20
2019-05-05T08:32:46.949Z,3.27
2019-05-05T08:35:18.394Z,3.40
2019-05-05T08:37:50.848Z,4.17
2019-05-05T08:40:24.014Z,3.30
2019-05-05T08:42:55.192Z,3.60
2019-05-05T08:45:26.825Z,3.70
2019-05-05T08:47:58.448Z,4.43
2019-05-05T08:50:29.903Z,3.90
2019-05-05T08:53:01.222Z,3.77
2019-05-05T08:55:34.590Z,4.00
2019-05-05T08:58:06.203Z,3.93
2019-05-05T09:00:37.573Z,3.67
2019-05-05T09:03:09.142Z,5.30
2019-05-05T09:05:40.277Z,4.40
2019-05-05T09:08:13.783Z,4.47
2019-05-05T09:10:44.893Z,4.77
2019-05-05T09:13:16.276Z,3.60
2019-05-05T09:15:47.572Z,3.73
2019-05-05T09:18:18.593Z,3.70
2019-05-05T09:20:49.684Z,3.77
2019-05-05T09:23:20.662Z,5.40
2019-05-05T09:26:04.437Z,4.10
2019-05-05T09:28:40.083Z,4.07
2019-05-05T09:31:10.996Z,4.20
2019-05-05T09:33:44.188Z,4.20
2019-05-05T09:36:15.149Z,3.43
2019-05-05T09:38:46.326Z,3.30
2019-05-05T09:41:17.538Z,4.80
2019-05-05T09:43:48.653Z,3.23
2019-05-05T09:46:19.718Z,4.20
2019-05-05T09:48:51.272Z,4.40
2019-05-05T09:51:24.152Z,3.60
2019-05-05T09:53:55.655Z,3.87
2019-05-05T09:56:26.995Z,3.90
2019-05-05T09:58:58.206Z,4.20
2019-05-05T10:01:29.390Z,3.90
2019-05-05T10:04:10.602Z,3.30
2019-05-05T10:06:45.514Z,3.70
2019-05-05T10:09:15.178Z,3.53
2019-05-05T10:11:46.430Z,4.30
2019-05-05T10:14:17.724Z,4.00
2019-05-05T10:16:49.324Z,4.63
2019-05-05T10:19:20.644Z,4.37
2019-05-05T10:21:51.963Z,7.37
2019-05-05T10:24:31.031Z,12.07
2019-05-05T10:27:00.386Z,3.83
2019-05-05T10:29:31.776Z,4.00
2019-05-05T10:32:04.554Z,4.40
2019-05-05T10:34:35.895Z,4.10
2019-05-05T10:37:07.223Z,4.10
2019-05-05T10:39:44.017Z,4.47
2019-05-05T10:42:15.357Z,5.23
2019-05-05T10:44:47.611Z,5.77
2019-05-05T10:47:18.829Z,4.10
2019-05-05T10:49:50.059Z,3.87
2019-05-05T10:52:21.166Z,4.20
2019-05-05T10:54:54.695Z,5.77
2019-05-05T10:57:25.132Z,5.10
2019-05-05T11:00:09.371Z,6.30
2019-05-05T11:02:29.617Z,6.77
2019-05-05T11:05:00.842Z,5.93
2019-05-05T11:07:34.096Z,5.23
2019-05-05T11:10:05.982Z,3.80
2019-05-05T11:12:37.121Z,3.83
2019-05-05T11:15:10.136Z,5.53
2019-05-05T11:17:41.355Z,4.60
2019-05-05T11:20:14.425Z,4.87
2019-05-05T11:22:45.609Z,5.20
2019-05-05T11:25:17.050Z,4.50
2019-05-05T11:27:48.222Z,4.77
2019-05-05T11:30:26.916Z,4.40
2019-05-05T11:33:34.279Z,3.93
2019-05-05T11:36:16.466Z,3.77
2019-05-05T11:38:47.721Z,4.13
2019-05-05T11:41:19.073Z,3.83
2019-05-05T11:43:50.153Z,3.90
2019-05-05T11:46:21.387Z,4.23
2019-05-05T11:48:54.421Z,4.27
2019-05-05T11:51:26.134Z,5.17
2019-05-05T11:53:57.414Z,4.30
2019-05-05T11:56:28.900Z,5.17
2019-05-05T11:59:00.112Z,4.33
2019-05-05T12:01:31.322Z,4.70
2019-05-05T12:04:04.373Z,4.10
2019-05-05T12:06:36.017Z,6.60
2019-05-05T12:09:13.954Z,3.57
2019-05-05T12:11:45.186Z,4.53
2019-05-05T12:14:18.945Z,3.90
2019-05-05T12:16:49.958Z,3.80
2019-05-05T12:19:21.346Z,3.50
2019-05-05T12:21:54.574Z,3.43
2019-05-05T12:24:29.713Z,4.00
2019-05-05T12:27:24.615Z,4.73
2019-05-05T12:29:59.994Z,4.23
2019-05-05T12:32:31.432Z,4.00
2019-05-05T12:35:04.233Z,3.80
2019-05-05T12:37:35.480Z,4.07
2019-05-05T12:40:08.176Z,3.87
2019-05-05T12:42:39.527Z,5.30
2019-05-05T12:45:14.086Z,3.60
2019-05-05T12:48:10.068Z,4.23
2019-05-05T12:50:41.182Z,3.83
2019-05-05T12:53:14.406Z,3.13
2019-05-05T12:55:45.407Z,3.63
2019-05-05T12:58:16.930Z,4.13
2019-05-05T13:00:57.392Z,3.80
2019-05-05T13:03:28.472Z,3.83
2019-05-05T13:05:59.969Z,3.37
2019-05-05T13:08:33.891Z,4.63
2019-05-05T13:11:04.883Z,3.87
2019-05-05T13:13:36.359Z,3.70
2019-05-05T13:16:07.477Z,4.20
2019-05-05T13:18:38.921Z,3.90
2019-05-05T13:21:41.179Z,4.13
2019-05-05T13:24:40.461Z,3.80
2019-05-05T13:27:11.525Z,3.90
2019-05-05T13:29:44.278Z,11.17
2019-05-05T13:32:15.597Z,4.73
2019-05-05T13:34:46.570Z,4.63
2019-05-05T13:37:18.013Z,3.97
2019-05-05T13:39:49.237Z,4.13
2019-05-05T13:42:20.405Z,3.67
2019-05-05T13:45:03.975Z,4.33
2019-05-05T13:47:35.326Z,3.70
2019-05-05T13:50:14.188Z,4.53
2019-05-05T13:52:45.776Z,4.10
2019-05-05T13:55:17.270Z,3.63
2019-05-05T13:57:48.885Z,4.00
2019-05-05T14:00:20.681Z,3.60
2019-05-05T14:02:51.841Z,3.80
2019-05-05T14:05:24.036Z,4.50
2019-05-05T14:07:55.523Z,4.57
2019-05-05T14:10:26.904Z,3.80
2019-05-05T14:12:58.983Z,4.23
2019-05-05T14:15:30.256Z,4.13
2019-05-05T14:18:03.674Z,4.13
2019-05-05T14:20:34.795Z,4.30
2019-05-05T14:23:05.916Z,4.47
2019-05-05T14:25:37.453Z,3.57
2019-05-05T14:28:08.748Z,4.37
2019-05-05T14:30:54.562Z,4.60
2019-05-05T14:33:28.550Z,4.47
2019-05-05T14:36:25.863Z,3.87
2019-05-05T14:38:58.288Z,3.87
2019-05-05T14:41:29.604Z,4.20
2019-05-05T14:44:00.736Z,3.60
2019-05-05T14:46:33.923Z,3.77
2019-05-05T14:49:05.816Z,4.47
2019-05-05T14:51:37.283Z,4.57
2019-05-05T14:54:10.804Z,4.23
2019-05-05T14:56:43.891Z,5.17
2019-05-05T14:59:14.583Z,5.20
2019-05-05T15:01:46.074Z,4.77
2019-05-05T15:04:19.045Z,8.00
2019-05-05T15:07:00.352Z,4.83
2019-05-05T15:09:54.655Z,3.87
2019-05-05T15:12:38.859Z,3.80
2019-05-05T15:15:10.191Z,5.00
2019-05-05T15:17:41.217Z,4.47
2019-05-05T15:20:13.985Z,4.53
2019-05-05T15:22:45.196Z,4.23
2019-05-05T15:25:16.558Z,4.43
2019-05-05T15:27:48.143Z,4.10
2019-05-05T15:30:19.375Z,5.10
2019-05-05T15:32:50.561Z,6.10
2019-05-05T15:35:21.936Z,5.33
2019-05-05T15:37:54.155Z,4.77
2019-05-05T15:40:25.533Z,4.07
2019-05-05T15:42:56.663Z,5.17
2019-05-05T15:45:28.052Z,5.20
2019-05-05T15:47:59.478Z,5.40
2019-05-05T15:50:30.798Z,5.33
2019-05-05T15:53:03.805Z,5.60
2019-05-05T15:55:35.259Z,5.27
2019-05-05T15:58:06.604Z,5.07
2019-05-05T16:00:37.769Z,5.00
2019-05-05T16:03:09.286Z,4.70
2019-05-05T16:05:40.540Z,4.80
2019-05-05T16:08:11.629Z,5.00
2019-05-05T16:10:44.020Z,5.03
2019-05-05T16:13:15.645Z,4.97
2019-05-05T16:16:05.779Z,5.13
2019-05-05T16:19:05.250Z,5.17
2019-05-05T16:21:40.693Z,6.53
2019-05-05T16:24:20.602Z,5.47
2019-05-05T16:26:55.231Z,5.43
2019-05-05T16:29:24.408Z,6.17
2019-05-05T16:31:55.791Z,5.97
2019-05-05T16:34:26.952Z,5.43
2019-05-05T16:36:58.023Z,5.67
2019-05-05T16:39:29.190Z,4.83
2019-05-05T16:42:00.445Z,4.57
2019-05-05T16:44:33.992Z,4.40
2019-05-05T16:47:04.871Z,5.17
2019-05-05T16:49:36.157Z,3.70
2019-05-05T16:52:14.584Z,3.70
2019-05-05T16:55:05.630Z,4.37
2019-05-05T16:57:37.125Z,3.77
2019-05-05T17:00:08.750Z,5.17
2019-05-05T17:02:39.893Z,5.90
2019-05-05T17:05:13.629Z,5.13
2019-05-05T17:07:44.564Z,6.07
2019-05-05T17:10:15.950Z,5.73
2019-05-05T17:12:47.536Z,5.43
2019-05-05T17:15:46.685Z,5.50
2019-05-05T17:18:41.876Z,5.07
2019-05-05T17:21:21.873Z,6.00
2019-05-05T17:23:53.954Z,6.40
2019-05-05T17:26:25.308Z,6.50
2019-05-05T17:28:56.647Z,5.87
2019-05-05T17:31:27.804Z,6.53
2019-05-05T17:33:59.244Z,6.17
2019-05-05T17:36:30.531Z,5.80
2019-05-05T17:39:01.666Z,6.40
2019-05-05T17:41:53.876Z,6.17
2019-05-05T17:44:44.281Z,6.70
2019-05-05T17:47:25.250Z,7.13
2019-05-05T17:50:08.783Z,8.13
2019-05-05T17:52:47.085Z,10.67
2019-05-05T17:55:29.087Z,11.53
2019-05-05T17:58:02.666Z,12.17
2019-05-05T18:00:36.611Z,11.73
2019-05-05T18:03:08.128Z,10.93
2019-05-05T18:05:56.957Z,8.47
2019-05-05T18:08:53.775Z,6.53
2019-05-05T18:11:30.255Z,8.23
2019-05-05T18:14:05.529Z,10.77
2019-05-05T18:16:36.552Z,10.00
2019-05-05T18:19:07.798Z,10.83
2019-05-05T18:21:39.170Z,9.97
2019-05-05T18:24:10.131Z,9.73
2019-05-05T18:26:43.435Z,8.97
2019-05-05T18:29:14.560Z,7.03
2019-05-05T18:31:45.936Z,7.33
2019-05-05T18:34:17.099Z,6.20
2019-05-05T18:36:48.206Z,6.17
2019-05-05T18:39:19.620Z,7.37
2019-05-05T18:42:09.734Z,7.00
2019-05-05T18:44:44.481Z,7.70
2019-05-05T18:47:19.403Z,8.27
2019-05-05T18:49:53.962Z,7.63
2019-05-05T18:52:25.319Z,6.10
2019-05-05T18:54:56.307Z,5.93
2019-05-05T18:57:27.354Z,5.67
2019-05-05T18:59:58.476Z,4.43
2019-05-05T19:02:44.270Z,3.60
2019-05-05T19:05:23.714Z,3.30
2019-05-05T19:08:01.454Z,4.03
2019-05-05T19:10:33.719Z,4.00
2019-05-05T19:13:05.194Z,4.17
2019-05-05T19:15:36.744Z,5.17
2019-05-05T19:18:08.147Z,4.90
2019-05-05T19:20:54.240Z,7.73
2019-05-05T19:23:25.345Z,5.70
2019-05-05T19:25:56.480Z,5.70
2019-05-05T19:28:40.974Z,4.77
2019-05-05T19:31:00.430Z,4.30
2019-05-05T19:33:33.922Z,5.20
2019-05-05T19:36:05.030Z,6.13
2019-05-05T19:38:36.131Z,5.13
2019-05-05T19:41:07.079Z,6.37
2019-05-05T19:43:54.858Z,8.53
2019-05-05T19:46:37.845Z,8.17
2019-05-05T19:49:18.417Z,7.00
2019-05-05T19:51:50.135Z,8.00
2019-05-05T19:54:21.951Z,10.10
2019-05-05T19:56:54.246Z,10.83
2019-05-05T19:59:25.391Z,10.00
2019-05-05T20:01:56.542Z,10.53
2019-05-05T20:04:27.864Z,10.07
2019-05-05T20:06:59.237Z,11.53
2019-05-05T20:09:30.653Z,9.70
2019-05-05T20:12:03.870Z,10.00
2019-05-05T20:14:36.324Z,9.80
2019-05-05T20:17:16.570Z,11.33
2019-05-05T20:19:47.673Z,10.20
2019-05-05T20:22:18.823Z,12.47
2019-05-05T20:24:49.758Z,11.10
2019-05-05T20:27:21.141Z,5.80
2019-05-05T20:29:52.321Z,4.17
2019-05-05T20:32:34.141Z,3.30
2019-05-05T20:35:17.942Z,3.03
2019-05-05T20:38:14.352Z,4.17
2019-05-05T20:40:47.120Z,4.60
2019-05-05T20:43:18.327Z,5.00
2019-05-05T20:45:49.376Z,8.93
2019-05-05T20:48:20.314Z,8.37
2019-05-05T20:50:51.331Z,8.50
2019-05-05T20:53:24.547Z,7.83
2019-05-05T20:55:55.016Z,8.27
2019-05-05T20:58:26.251Z,8.67
2019-05-05T21:00:57.480Z,7.20
2019-05-05T21:03:28.764Z,7.70
2019-05-05T21:05:59.825Z,8.13
2019-05-05T21:08:30.893Z,5.50
2019-05-05T21:11:04.176Z,7.03
2019-05-05T21:13:35.214Z,4.80
2019-05-05T21:16:06.227Z,1.70
2019-05-05T21:18:37.197Z,1.77
2019-05-05T21:21:13.740Z,1.40
2019-05-05T21:23:49.628Z,1.53
2019-05-05T21:26:25.031Z,1.20
2019-05-05T21:28:56.088Z,0.97
2019-05-05T21:31:27.324Z,2.13
2019-05-05T21:33:58.377Z,3.60
2019-05-05T21:36:29.757Z,4.73
2019-05-05T21:39:01.215Z,5.50
2019-05-05T21:41:34.054Z,5.30
2019-05-05T21:44:05.623Z,6.13
2019-05-05T21:46:36.910Z,6.33
2019-05-05T21:49:08.160Z,5.77
2019-05-05T21:52:07.359Z,7.03
2019-05-05T21:55:04.709Z,7.43
2019-05-05T21:58:01.034Z,6.90
2019-05-05T22:00:49.630Z,7.70
2019-05-05T22:03:27.772Z,8.20
2019-05-05T22:05:58.930Z,7.60
2019-05-05T22:08:29.986Z,7.03
2019-05-05T22:11:03.770Z,6.90
2019-05-05T22:13:36.603Z,9.23
2019-05-05T22:16:08.380Z,7.23
2019-05-05T22:18:40.110Z,9.67
2019-05-05T22:21:45.173Z,6.50
2019-05-05T22:24:17.444Z,5.40
2019-05-05T22:26:48.830Z,5.27
2019-05-05T22:29:20.343Z,4.70
2019-05-05T22:31:51.709Z,8.83
2019-05-05T22:34:24.118Z,9.30
2019-05-05T22:36:55.602Z,11.57
2019-05-05T22:39:27.034Z,6.30
2019-05-05T22:41:58.405Z,5.57
2019-05-05T22:44:29.519Z,5.83
2019-05-05T22:47:00.764Z,5.93
2019-05-05T22:49:31.888Z,9.00
2019-05-05T22:52:03.845Z,5.57
2019-05-05T22:54:35.088Z,4.50
2019-05-05T22:57:06.331Z,4.27
2019-05-05T22:59:37.391Z,5.40
2019-05-05T23:02:08.919Z,5.00
2019-05-05T23:04:57.891Z,3.30
2019-05-05T23:07:31.103Z,2.10
2019-05-05T23:10:04.462Z,1.93
2019-05-05T23:12:35.210Z,2.03
2019-05-05T23:15:09.447Z,1.70
2019-05-05T23:17:56.384Z,1.67
2019-05-05T23:21:02.521Z,1.50
2019-05-05T23:23:50.366Z,1.50
2019-05-05T23:26:22.306Z,3.30
2019-05-05T23:28:53.820Z,9.53
2019-05-05T23:31:24.938Z,10.67
2019-05-05T23:33:56.093Z,6.90
2019-05-05T23:36:27.537Z,8.77
2019-05-05T23:38:58.902Z,12.80
2019-05-05T23:41:31.205Z,14.33
2019-05-05T23:44:03.664Z,12.23
2019-05-05T23:46:34.999Z,12.00
2019-05-05T23:49:06.469Z,13.20
2019-05-05T23:51:38.858Z,8.00
2019-05-05T23:54:10.362Z,5.10
2019-05-05T23:56:41.619Z,5.33
2019-05-05T23:59:13.705Z,4.30
